Time;durP1;ratioP1;P1;durP2;ratioP2;P2;SDS_P1;SDS_P2;PMS_P1;PMS_P2;Temp;Humidity;BMP_temperature;BMP_pressure;BME280_temperature;BME280_humidity;BME280_pressure;Samples;Min_cycle;Max_cycle;Signal;HPM_P1;HPM_P2
2021/10/27 00:00:43;;;;;;;;;;;9.40;99.90;;;;;;5035046;28;19931;-41
2021/10/27 00:03:09;;;;;;;;;;;9.40;99.90;;;;;;5035140;28;19908;-40
2021/10/27 00:05:34;;;;;;;;;;;9.40;99.90;;;;;;5033929;28;19944;-40
2021/10/27 00:07:59;;;;;;;;;;;9.40;99.90;;;;;;5034816;28;19947;-40
2021/10/27 00:10:25;;;;;;;;;;;9.50;99.90;;;;;;5033763;28;19913;-40
2021/10/27 00:12:51;;;;;;;;;;;9.50;99.90;;;;;;5035006;28;19916;-41
2021/10/27 00:15:17;;;;;;;;;;;9.50;99.90;;;;;;5035013;28;19909;-40
2021/10/27 00:17:43;;;;;;;;;;;9.60;99.90;;;;;;5034769;28;19916;-40
2021/10/27 00:20:09;;;;;;;;;;;9.60;99.90;;;;;;5033790;28;19950;-40
2021/10/27 00:22:35;;;;;;;;;;;9.70;99.90;;;;;;5034762;28;19912;-41
2021/10/27 00:25:00;;;;;;;;;;;9.70;99.90;;;;;;5034683;28;19932;-40
2021/10/27 00:27:26;;;;;;;;;;;9.70;99.90;;;;;;5034690;28;20356;-41
2021/10/27 00:29:51;;;;;;;;;;;9.70;99.90;;;;;;5034636;28;19912;-40
2021/10/27 00:32:17;;;;;;;;;;;9.70;99.90;;;;;;5034609;28;19908;-40
2021/10/27 00:34:42;;;;;;;;;;;9.70;99.90;;;;;;5032528;28;19971;-40
2021/10/27 00:37:08;;;;;;;;;;;9.80;99.90;;;;;;5034469;28;19913;-40
2021/10/27 00:39:34;;;;;;;;;;;9.80;99.90;;;;;;5034518;28;20334;-40
2021/10/27 00:42:00;;;;;;;;;;;9.90;99.90;;;;;;5034444;28;20319;-40
2021/10/27 00:44:26;;;;;;;;;;;9.80;99.90;;;;;;5034416;28;19999;-41
2021/10/27 00:46:59;;;;;;;;;;;9.90;99.90;;;;;;5034341;28;20060;-40
2021/10/27 00:49:25;;;;;;;;;;;9.90;99.90;;;;;;5033257;28;20339;-40
2021/10/27 00:51:50;;;;;;;;;;;9.90;99.90;;;;;;5034188;28;19905;-43
2021/10/27 00:54:16;;;;;;;;;;;9.90;99.90;;;;;;5034157;28;20256;-40
2021/10/27 00:56:42;;;;;;;;;;;10.00;99.90;;;;;;5034188;28;20386;-40
2021/10/27 00:59:08;;;;;;;;;;;10.00;99.90;;;;;;5033993;28;19909;-40
2021/10/27 01:01:33;;;;;;;;;;;10.00;99.90;;;;;;5034082;28;20349;-40
2021/10/27 01:03:59;;;;;;;;;;;10.00;99.90;;;;;;5033803;28;20277;-40
2021/10/27 01:06:24;;;;;;;;;;;10.00;99.90;;;;;;5033068;28;19905;-40
2021/10/27 01:08:50;;;;;;;;;;;10.00;99.90;;;;;;5033668;28;19916;-40
2021/10/27 01:11:15;;;;;;;;;;;9.90;99.90;;;;;;5033896;28;20288;-40
2021/10/27 01:13:41;;;;;;;;;;;9.90;99.90;;;;;;5033776;28;20280;-39
2021/10/27 01:16:06;;;;;;;;;;;9.90;99.90;;;;;;5033762;28;20296;-41
2021/10/27 01:18:32;;;;;;;;;;;9.90;99.90;;;;;;5033588;28;19916;-40
2021/10/27 01:20:57;;;;;;;;;;;9.90;99.90;;;;;;5032657;28;19952;-40
2021/10/27 01:23:24;;;;;;;;;;;9.80;99.90;;;;;;5033521;28;20010;-40
2021/10/27 01:25:50;;;;;;;;;;;9.80;99.90;;;;;;5033673;28;20039;-40
2021/10/27 01:28:15;;;;;;;;;;;9.80;99.90;;;;;;5033516;28;19956;-40
2021/10/27 01:30:41;;;;;;;;;;;9.70;99.90;;;;;;5033619;28;19944;-41
2021/10/27 01:33:06;;;;;;;;;;;9.70;99.90;;;;;;5033332;28;20107;-41
2021/10/27 01:35:31;;;;;;;;;;;9.70;99.90;;;;;;5032581;28;20426;-41
2021/10/27 01:37:57;;;;;;;;;;;9.70;99.90;;;;;;5033196;28;19916;-39
2021/10/27 01:40:23;;;;;;;;;;;9.80;99.90;;;;;;5033332;28;19905;-41
2021/10/27 01:42:52;;;;;;;;;;;9.80;99.90;;;;;;5033434;28;20417;-40
2021/10/27 01:45:17;;;;;;;;;;;9.80;99.90;;;;;;5033159;28;19909;-40
2021/10/27 01:47:43;;;;;;;;;;;9.80;99.90;;;;;;5033125;28;19950;-40
2021/10/27 01:50:10;;;;;;;;;;;9.80;99.90;;;;;;5032188;28;20391;-40
2021/10/27 01:52:35;;;;;;;;;;;9.90;99.90;;;;;;5033258;28;19909;-40
2021/10/27 01:55:01;;;;;;;;;;;9.90;99.90;;;;;;5033196;28;20545;-41
2021/10/27 01:57:28;;;;;;;;;;;9.90;99.90;;;;;;5033147;28;20272;-41
2021/10/27 01:59:53;;;;;;;;;;;9.90;99.90;;;;;;5033092;28;20376;-41
2021/10/27 02:02:18;;;;;;;;;;;9.90;99.90;;;;;;5032951;28;19912;-42
2021/10/27 02:04:44;;;;;;;;;;;9.90;99.90;;;;;;5032164;28;19905;-41
2021/10/27 02:07:09;;;;;;;;;;;9.90;99.90;;;;;;5033015;28;20004;-40
2021/10/27 02:09:37;;;;;;;;;;;9.90;99.90;;;;;;5032977;28;19916;-40
2021/10/27 02:12:03;;;;;;;;;;;9.80;99.90;;;;;;5032903;28;19912;-40
2021/10/27 02:14:28;;;;;;;;;;;9.80;99.90;;;;;;5033119;28;19909;-40
2021/10/27 02:16:54;;;;;;;;;;;9.80;99.90;;;;;;5032792;28;19928;-40
2021/10/27 02:19:19;;;;;;;;;;;9.70;99.90;;;;;;5032069;28;20435;-40
2021/10/27 02:21:45;;;;;;;;;;;9.70;99.90;;;;;;5032950;28;20359;-43
2021/10/27 02:24:10;;;;;;;;;;;9.70;99.90;;;;;;5032865;28;19913;-40
2021/10/27 02:26:36;;;;;;;;;;;9.70;99.90;;;;;;5032931;28;20351;-40
2021/10/27 02:29:02;;;;;;;;;;;9.70;99.90;;;;;;5032831;28;19912;-40
2021/10/27 02:31:27;;;;;;;;;;;9.70;99.90;;;;;;5032871;28;19976;-40
2021/10/27 02:33:53;;;;;;;;;;;9.70;99.90;;;;;;5032715;28;20007;-40
2021/10/27 02:36:18;;;;;;;;;;;9.70;99.90;;;;;;5031742;28;19916;-40
2021/10/27 02:38:44;;;;;;;;;;;9.70;99.90;;;;;;5032846;28;19909;-40
2021/10/27 02:41:12;;;;;;;;;;;9.70;99.90;;;;;;5032795;28;20321;-40
2021/10/27 02:43:38;;;;;;;;;;;9.80;99.90;;;;;;5032832;28;20363;-41
2021/10/27 02:46:03;;;;;;;;;;;9.80;99.90;;;;;;5032728;28;19943;-41
2021/10/27 02:48:29;;;;;;;;;;;9.80;99.90;;;;;;5032601;28;19996;-40
2021/10/27 02:50:54;;;;;;;;;;;9.80;99.90;;;;;;5031867;28;19943;-40
2021/10/27 02:53:19;;;;;;;;;;;9.90;99.90;;;;;;5032596;28;19959;-40
2021/10/27 02:55:45;;;;;;;;;;;9.90;99.90;;;;;;5032728;28;19911;-40
2021/10/27 02:58:10;;;;;;;;;;;9.90;99.90;;;;;;5035637;28;20368;-40
2021/10/27 03:00:36;;;;;;;;;;;10.00;99.90;;;;;;5036396;28;20356;-40
2021/10/27 03:03:02;;;;;;;;;;;10.00;99.90;;;;;;5036071;28;20323;-40
2021/10/27 03:05:28;;;;;;;;;;;10.00;99.90;;;;;;5035564;28;19905;-40
2021/10/27 03:07:54;;;;;;;;;;;10.10;99.90;;;;;;5036184;28;19905;-41
2021/10/27 03:10:19;;;;;;;;;;;10.10;99.90;;;;;;5036113;28;20338;-41
2021/10/27 03:12:44;;;;;;;;;;;10.10;99.90;;;;;;5036062;28;19966;-41
2021/10/27 03:15:10;;;;;;;;;;;10.10;99.90;;;;;;5036041;28;20003;-40
2021/10/27 03:17:36;;;;;;;;;;;10.20;99.90;;;;;;5035881;28;19920;-40
2021/10/27 03:20:02;;;;;;;;;;;10.20;99.90;;;;;;5035081;28;19971;-41
2021/10/27 03:22:27;;;;;;;;;;;10.20;99.90;;;;;;5035826;28;19905;-41
2021/10/27 03:24:53;;;;;;;;;;;10.30;99.90;;;;;;5035850;28;19905;-43
2021/10/27 03:27:18;;;;;;;;;;;10.30;99.90;;;;;;5044061;28;19908;-41
2021/10/27 03:29:44;;;;;;;;;;;10.30;99.90;;;;;;5054305;28;19905;-40
2021/10/27 03:32:09;;;;;;;;;;;10.30;99.90;;;;;;5054102;28;20295;-41
2021/10/27 03:34:35;;;;;;;;;;;10.30;99.90;;;;;;5053511;28;19905;-40
2021/10/27 03:37:01;;;;;;;;;;;10.40;99.90;;;;;;5054190;28;19905;-41
2021/10/27 03:39:27;;;;;;;;;;;10.40;99.90;;;;;;5054288;28;19905;-43
2021/10/27 03:41:52;;;;;;;;;;;10.40;99.90;;;;;;5053933;28;19959;-41
2021/10/27 03:44:18;;;;;;;;;;;10.40;99.90;;;;;;5053950;28;19904;-40
2021/10/27 03:46:43;;;;;;;;;;;10.40;99.90;;;;;;5054065;28;19924;-40
2021/10/27 03:49:09;;;;;;;;;;;10.40;99.90;;;;;;5053172;28;19912;-41
2021/10/27 03:51:34;;;;;;;;;;;10.50;99.90;;;;;;5054044;28;19905;-41
2021/10/27 03:54:00;;;;;;;;;;;10.50;99.90;;;;;;5053907;28;20283;-45
2021/10/27 03:56:25;;;;;;;;;;;10.50;99.90;;;;;;5053827;28;20364;-42
2021/10/27 03:58:51;;;;;;;;;;;10.50;99.90;;;;;;5053807;28;19908;-43
2021/10/27 04:01:16;;;;;;;;;;;10.50;99.90;;;;;;5052552;28;20062;-43
2021/10/27 04:03:42;;;;;;;;;;;10.50;99.90;;;;;;5053520;28;19912;-43
2021/10/27 04:06:07;;;;;;;;;;;10.50;99.90;;;;;;5052471;28;19905;-41
2021/10/27 04:08:33;;;;;;;;;;;10.60;99.90;;;;;;5053314;28;19954;-43
2021/10/27 04:10:58;;;;;;;;;;;10.50;99.90;;;;;;5053698;28;19904;-42
2021/10/27 04:13:23;;;;;;;;;;;10.60;99.90;;;;;;5053555;28;19909;-42
2021/10/27 04:15:49;;;;;;;;;;;10.60;99.90;;;;;;5053771;28;19905;-40
2021/10/27 04:18:15;;;;;;;;;;;10.60;99.90;;;;;;5053261;28;19912;-39
2021/10/27 04:20:40;;;;;;;;;;;10.60;99.90;;;;;;5052675;28;19904;-39
2021/10/27 04:23:06;;;;;;;;;;;10.60;99.90;;;;;;5053425;28;19909;-41
2021/10/27 04:25:32;;;;;;;;;;;10.60;99.90;;;;;;5053469;28;19996;-41
2021/10/27 04:27:57;;;;;;;;;;;10.70;99.90;;;;;;5052568;28;20007;-39
2021/10/27 04:30:23;;;;;;;;;;;10.60;99.90;;;;;;5053178;28;20390;-43
2021/10/27 04:32:48;;;;;;;;;;;10.70;99.90;;;;;;5053251;28;19915;-41
2021/10/27 04:35:15;;;;;;;;;;;10.70;99.90;;;;;;5052202;28;20240;-43
2021/10/27 04:37:44;;;;;;;;;;;10.70;99.90;;;;;;5053187;28;19959;-42
2021/10/27 04:40:10;;;;;;;;;;;10.70;99.90;;;;;;5053117;28;19916;-41
2021/10/27 04:42:36;;;;;;;;;;;10.70;99.90;;;;;;5049944;28;20363;-43
2021/10/27 04:45:03;;;;;;;;;;;10.70;99.90;;;;;;5051897;28;19936;-45
2021/10/27 04:47:28;;;;;;;;;;;10.80;99.90;;;;;;5052586;28;19999;-40
2021/10/27 04:49:54;;;;;;;;;;;10.80;99.90;;;;;;5051986;28;20397;-41
2021/10/27 04:52:19;;;;;;;;;;;10.70;99.90;;;;;;5052723;28;20244;-41
2021/10/27 04:54:45;;;;;;;;;;;10.70;99.90;;;;;;5052670;28;19905;-41
2021/10/27 04:57:10;;;;;;;;;;;10.80;99.90;;;;;;5051712;28;19904;-41
2021/10/27 04:59:45;;;;;;;;;;;10.80;99.90;;;;;;5052465;28;19905;-43
2021/10/27 05:02:11;;;;;;;;;;;10.80;99.90;;;;;;5052641;28;19927;-40
2021/10/27 05:04:36;;;;;;;;;;;10.80;99.90;;;;;;5051771;28;19908;-43
2021/10/27 05:07:02;;;;;;;;;;;10.90;99.90;;;;;;5052651;28;20279;-41
2021/10/27 05:09:28;;;;;;;;;;;10.80;99.90;;;;;;5052290;28;20308;-41
2021/10/27 05:11:54;;;;;;;;;;;10.90;99.90;;;;;;5052536;28;19909;-41
2021/10/27 05:14:19;;;;;;;;;;;10.90;99.90;;;;;;5051555;28;19904;-43
2021/10/27 05:16:45;;;;;;;;;;;10.90;99.90;;;;;;5052346;28;20370;-43
2021/10/27 05:19:10;;;;;;;;;;;10.90;99.90;;;;;;5050854;28;19916;-40
2021/10/27 05:21:36;;;;;;;;;;;10.90;99.90;;;;;;5052345;28;19905;-44
2021/10/27 05:24:01;;;;;;;;;;;11.00;99.90;;;;;;5051145;28;19904;-44
2021/10/27 05:26:26;;;;;;;;;;;11.00;99.90;;;;;;5052084;28;19904;-45
2021/10/27 05:28:52;;;;;;;;;;;11.00;99.90;;;;;;5052033;28;20520;-49
2021/10/27 05:31:17;;;;;;;;;;;11.00;99.90;;;;;;5051116;28;20475;-43
2021/10/27 05:33:43;;;;;;;;;;;11.00;99.90;;;;;;5051885;28;19905;-44
2021/10/27 05:36:08;;;;;;;;;;;11.00;99.90;;;;;;5050929;28;19904;-44
2021/10/27 05:38:33;;;;;;;;;;;11.00;99.90;;;;;;5051987;28;20352;-47
2021/10/27 05:40:59;;;;;;;;;;;11.00;99.90;;;;;;5052293;28;20249;-44
2021/10/27 05:43:25;;;;;;;;;;;11.00;99.90;;;;;;5051790;28;20506;-45
2021/10/27 05:45:53;;;;;;;;;;;11.00;99.90;;;;;;5051771;28;20076;-45
2021/10/27 05:48:21;;;;;;;;;;;11.00;99.90;;;;;;5051799;28;20395;-45
2021/10/27 05:50:58;;;;;;;;;;;11.00;99.90;;;;;;5050994;28;19980;-44
2021/10/27 05:56:07;;;;;;;;;;;11.10;99.90;;;;;;5051582;28;19912;-45
2021/10/27 05:58:33;;;;;;;;;;;11.10;99.90;;;;;;5051684;28;19912;-43
2021/10/27 06:01:00;;;;;;;;;;;11.10;99.90;;;;;;5051796;28;19905;-41
2021/10/27 06:03:27;;;;;;;;;;;11.10;99.90;;;;;;5051720;28;19912;-45
2021/10/27 06:05:52;;;;;;;;;;;11.10;99.90;;;;;;5050789;28;20340;-44
2021/10/27 06:08:18;;;;;;;;;;;11.10;99.90;;;;;;5051497;28;19913;-42
2021/10/27 06:10:43;;;;;;;;;;;11.10;99.90;;;;;;5051453;28;19905;-40
2021/10/27 06:13:12;;;;;;;;;;;11.10;99.90;;;;;;5051738;28;19904;-46
2021/10/27 06:15:38;;;;;;;;;;;11.10;99.90;;;;;;5051572;28;19909;-46
2021/10/27 06:18:03;;;;;;;;;;;11.10;99.90;;;;;;5051559;28;19908;-43
2021/10/27 06:20:29;;;;;;;;;;;11.10;99.90;;;;;;5050617;28;20038;-43
2021/10/27 06:22:55;;;;;;;;;;;11.20;99.90;;;;;;5051675;28;19970;-41
2021/10/27 06:25:21;;;;;;;;;;;11.20;99.90;;;;;;5051370;28;19912;-40
2021/10/27 06:27:49;;;;;;;;;;;11.20;99.90;;;;;;5051506;28;19905;-44
2021/10/27 06:30:23;;;;;;;;;;;11.20;99.90;;;;;;5051502;28;19909;-45
2021/10/27 06:33:02;;;;;;;;;;;11.20;99.90;;;;;;5054267;28;19905;-48
2021/10/27 06:35:32;;;;;;;;;;;11.10;99.90;;;;;;5054427;28;19911;-48
2021/10/27 06:46:30;;;;;;;;;;;11.20;99.90;;;;;;5055089;28;19950;-41
2021/10/27 06:48:56;;;;;;;;;;;11.20;99.90;;;;;;5055369;28;19936;-40
2021/10/27 06:51:21;;;;;;;;;;;11.20;99.90;;;;;;5054270;28;19959;-41
2021/10/27 06:53:47;;;;;;;;;;;11.30;99.90;;;;;;5055034;28;19908;-46
2021/10/27 06:56:13;;;;;;;;;;;11.30;99.90;;;;;;5053744;28;20008;-41
2021/10/27 07:01:30;;;;;;;;;;;11.40;99.90;;;;;;5055291;28;19950;-41
2021/10/27 07:17:32;;;;;;;;;;;11.50;99.90;;;;;;5057770;28;20360;-45
2021/10/27 07:19:59;;;;;;;;;;;11.50;99.90;;;;;;5053802;28;19953;-44
2021/10/27 07:22:26;;;;;;;;;;;11.60;99.90;;;;;;5053365;28;19904;-42
2021/10/27 07:24:51;;;;;;;;;;;11.60;99.90;;;;;;5054487;28;19904;-42
2021/10/27 07:27:18;;;;;;;;;;;11.60;99.90;;;;;;5054512;28;19912;-43
2021/10/27 07:29:45;;;;;;;;;;;11.60;99.90;;;;;;5054468;28;20299;-40
2021/10/27 07:32:13;;;;;;;;;;;11.70;99.90;;;;;;5054422;28;19995;-40
2021/10/27 07:34:41;;;;;;;;;;;11.70;99.90;;;;;;5053389;28;20362;-45
2021/10/27 07:40:05;;;;;;;;;;;11.80;99.90;;;;;;5054259;28;20072;-43
2021/10/27 07:42:33;;;;;;;;;;;11.90;99.90;;;;;;5053226;28;20003;-41
2021/10/27 07:44:58;;;;;;;;;;;12.00;99.90;;;;;;5054218;28;20289;-40
2021/10/27 07:47:24;;;;;;;;;;;12.20;99.90;;;;;;5054231;28;19995;-41
2021/10/27 07:49:49;;;;;;;;;;;12.30;99.90;;;;;;5053151;28;19999;-41
2021/10/27 07:52:14;;;;;;;;;;;12.40;99.90;;;;;;5054043;28;19995;-41
2021/10/27 07:54:40;;;;;;;;;;;12.50;99.90;;;;;;5053797;28;19904;-40
2021/10/27 07:57:06;;;;;;;;;;;12.50;99.90;;;;;;5053744;28;20002;-40
2021/10/27 07:59:34;;;;;;;;;;;12.60;99.90;;;;;;5053906;28;19905;-46
2021/10/27 08:02:00;;;;;;;;;;;12.70;99.90;;;;;;5054081;28;20282;-48
2021/10/27 08:04:26;;;;;;;;;;;12.80;99.90;;;;;;5053013;28;19995;-46
2021/10/27 08:06:51;;;;;;;;;;;12.90;99.90;;;;;;5053602;28;20007;-47
2021/10/27 08:09:19;;;;;;;;;;;12.90;99.90;;;;;;5053668;28;19921;-50
2021/10/27 08:11:45;;;;;;;;;;;13.00;99.90;;;;;;5053514;28;19951;-46
2021/10/27 08:14:11;;;;;;;;;;;13.00;99.90;;;;;;5053723;28;19905;-46
2021/10/27 08:16:36;;;;;;;;;;;13.00;99.90;;;;;;5053543;28;20367;-45
2021/10/27 08:19:03;;;;;;;;;;;13.00;99.90;;;;;;5052800;28;19912;-41
2021/10/27 08:21:28;;;;;;;;;;;13.00;99.90;;;;;;5053342;28;20276;-40
2021/10/27 08:23:54;;;;;;;;;;;13.00;99.90;;;;;;5053318;28;19909;-42
2021/10/27 08:26:23;;;;;;;;;;;13.00;99.90;;;;;;5053350;28;19905;-41
2021/10/27 08:28:54;;;;;;;;;;;13.10;99.90;;;;;;5053355;28;20332;-41
2021/10/27 08:34:05;;;;;;;;;;;13.20;99.90;;;;;;5053198;28;19956;-43
2021/10/27 08:36:30;;;;;;;;;;;13.30;99.90;;;;;;5053220;28;19954;-42
2021/10/27 08:38:56;;;;;;;;;;;13.30;99.90;;;;;;5052900;28;19916;-43
2021/10/27 08:41:24;;;;;;;;;;;13.30;99.90;;;;;;5053182;28;19983;-44
2021/10/27 08:43:49;;;;;;;;;;;13.40;99.90;;;;;;5052961;28;20287;-40
2021/10/27 08:46:16;;;;;;;;;;;13.50;99.90;;;;;;5053064;28;19911;-44
2021/10/27 08:48:43;;;;;;;;;;;13.60;99.90;;;;;;5052915;28;19951;-44
2021/10/27 08:51:11;;;;;;;;;;;13.70;99.90;;;;;;5052068;28;20007;-39
2021/10/27 08:53:37;;;;;;;;;;;13.70;99.90;;;;;;5052427;28;19935;-46
2021/10/27 08:56:04;;;;;;;;;;;13.80;99.90;;;;;;5052251;28;19905;-41
2021/10/27 08:58:35;;;;;;;;;;;13.80;99.90;;;;;;5052816;28;19915;-41
2021/10/27 09:01:39;;;;;;;;;;;13.90;99.90;;;;;;5052711;28;20367;-40
2021/10/27 09:04:54;;;;;;;;;;;13.90;99.90;;;;;;5053177;28;19912;-39
2021/10/27 09:06:57;;;;;;;;;;;14.00;99.90;;;;;;5054292;28;20004;-38
2021/10/27 09:09:36;;;;;;;;;;;14.30;99.90;;;;;;5052601;28;19962;-45
2021/10/27 09:34:35;;;;;;;;;;;16.30;99.90;;;;;;5051327;28;20425;-39
2021/10/27 09:37:23;;;;;;;;;;;16.50;99.90;;;;;;5052134;28;19911;-39
2021/10/27 09:40:25;;;;;;;;;;;16.70;99.90;;;;;;5051953;28;19915;-39
2021/10/27 10:05:08;;;;;;;;;;;17.20;97.90;;;;;;5050624;28;19911;-39
2021/10/27 10:07:34;;;;;;;;;;;17.30;97.60;;;;;;5051758;28;19966;-38
2021/10/27 10:10:02;;;;;;;;;;;17.40;98.10;;;;;;5049685;28;19920;-39
2021/10/27 10:12:27;;;;;;;;;;;17.50;97.70;;;;;;5051698;28;20544;-39
2021/10/27 10:14:53;;;;;;;;;;;17.50;97.20;;;;;;5051460;28;19905;-38
2021/10/27 10:17:19;;;;;;;;;;;17.40;98.40;;;;;;5051770;28;19905;-39
2021/10/27 10:19:44;;;;;;;;;;;17.40;97.40;;;;;;5050673;28;20279;-39
2021/10/27 10:22:27;;;;;;;;;;;17.40;96.70;;;;;;5051601;28;19912;-39
2021/10/27 10:24:52;;;;;;;;;;;17.40;95.90;;;;;;5051631;28;19950;-40
2021/10/27 10:27:34;;;;;;;;;;;17.50;97.90;;;;;;5050665;28;19909;-42
2021/10/27 10:30:03;;;;;;;;;;;17.40;96.00;;;;;;5051097;28;19906;-41
2021/10/27 10:32:30;;;;;;;;;;;17.30;97.60;;;;;;5052311;28;20376;-43
2021/10/27 10:35:01;;;;;;;;;;;17.10;97.80;;;;;;5051804;28;20368;-39
2021/10/27 10:37:32;;;;;;;;;;;17.00;99.30;;;;;;5048550;28;19928;-40
2021/10/27 10:40:03;;;;;;;;;;;17.00;98.70;;;;;;5051074;28;19995;-39
2021/10/27 10:42:53;;;;;;;;;;;16.90;99.90;;;;;;5051422;28;19905;-38
2021/10/27 10:45:31;;;;;;;;;;;17.00;99.90;;;;;;5051297;28;19905;-51
2021/10/27 10:56:38;;;;;;;;;;;16.80;99.90;;;;;;5051301;28;19912;-50
2021/10/27 11:27:04;;;;;;;;;;;16.50;99.90;;;;;;5053630;28;19911;-48
2021/10/27 11:37:52;;;;;;;;;;;16.30;99.90;;;;;;5055817;28;19978;-52
2021/10/27 11:40:40;;;;;;;;;;;16.20;99.90;;;;;;5054031;28;19916;-54
2021/10/27 11:48:05;;;;;;;;;;;16.20;99.90;;;;;;5055487;28;19988;-52
2021/10/27 11:50:32;;;;;;;;;;;16.30;99.90;;;;;;5054608;28;19909;-53
2021/10/27 11:52:58;;;;;;;;;;;16.30;99.90;;;;;;5055176;28;19904;-56
2021/10/27 11:55:27;;;;;;;;;;;16.40;99.90;;;;;;5055351;28;19911;-49
2021/10/27 11:57:55;;;;;;;;;;;16.30;99.90;;;;;;5055208;28;19908;-41
2021/10/27 12:00:26;;;;;;;;;;;16.30;99.90;;;;;;5055252;28;19912;-44
2021/10/27 12:03:00;;;;;;;;;;;16.20;99.90;;;;;;5055181;28;19904;-40
2021/10/27 12:05:27;;;;;;;;;;;16.20;99.90;;;;;;5054134;28;19905;-44
2021/10/27 12:08:18;;;;;;;;;;;16.20;99.90;;;;;;5055050;28;19988;-41
2021/10/27 12:10:59;;;;;;;;;;;16.30;99.90;;;;;;5055085;28;19944;-41
2021/10/27 12:13:39;;;;;;;;;;;16.30;99.90;;;;;;5055083;28;20340;-41
2021/10/27 12:16:28;;;;;;;;;;;16.30;99.90;;;;;;5054926;28;20291;-44
2021/10/27 12:19:07;;;;;;;;;;;16.30;99.90;;;;;;5054630;28;20071;-44
2021/10/27 12:21:33;;;;;;;;;;;16.30;99.90;;;;;;5054977;28;19936;-41
2021/10/27 12:24:01;;;;;;;;;;;16.20;99.90;;;;;;5054808;28;19942;-42
2021/10/27 12:26:40;;;;;;;;;;;16.20;99.90;;;;;;5054749;28;19961;-43
2021/10/27 12:29:13;;;;;;;;;;;16.10;99.90;;;;;;5054424;28;20355;-41
2021/10/27 12:31:39;;;;;;;;;;;16.00;99.90;;;;;;5054689;28;19904;-40
2021/10/27 12:34:20;;;;;;;;;;;16.00;99.90;;;;;;5053588;28;19905;-41
2021/10/27 12:36:47;;;;;;;;;;;15.90;99.90;;;;;;5054382;28;20007;-41
2021/10/27 12:39:21;;;;;;;;;;;15.90;99.90;;;;;;5054364;28;20352;-41
2021/10/27 12:42:07;;;;;;;;;;;15.90;99.90;;;;;;5054476;28;19995;-41
2021/10/27 12:44:34;;;;;;;;;;;15.90;99.90;;;;;;5054458;28;19904;-41
2021/10/27 12:47:05;;;;;;;;;;;15.90;99.90;;;;;;5054269;28;19904;-44
2021/10/27 12:49:31;;;;;;;;;;;15.80;99.90;;;;;;5053492;28;19909;-41
2021/10/27 12:51:56;;;;;;;;;;;15.80;99.90;;;;;;5054240;28;19909;-41
2021/10/27 12:54:28;;;;;;;;;;;15.80;99.90;;;;;;5054137;28;20265;-41
2021/10/27 12:57:04;;;;;;;;;;;15.70;99.90;;;;;;5054253;28;19905;-41
2021/10/27 12:59:31;;;;;;;;;;;15.70;99.90;;;;;;5053960;28;19954;-41
2021/10/27 13:02:23;;;;;;;;;;;15.60;99.90;;;;;;5054010;28;19913;-41
2021/10/27 13:05:01;;;;;;;;;;;15.50;99.90;;;;;;5053097;28;19979;-41
2021/10/27 13:07:32;;;;;;;;;;;15.50;99.90;;;;;;5053928;28;19905;-41
2021/10/27 13:10:22;;;;;;;;;;;15.40;99.90;;;;;;5053436;28;20269;-41
2021/10/27 13:15:53;;;;;;;;;;;15.30;99.90;;;;;;5053799;28;19911;-41
2021/10/27 13:18:37;;;;;;;;;;;15.30;99.90;;;;;;5053487;28;20323;-41
2021/10/27 13:21:23;;;;;;;;;;;15.20;99.90;;;;;;5052860;28;19942;-41
2021/10/27 13:29:24;;;;;;;;;;;15.20;99.90;;;;;;5053526;28;19905;-41
2021/10/27 13:29:35;;;;;;;;;;;15.00;99.90;;;;;;5053074;28;19996;-41
2021/10/27 13:32:00;;;;;;;;;;;15.00;99.90;;;;;;5053332;28;20046;-40
2021/10/27 13:34:26;;;;;;;;;;;14.90;99.90;;;;;;5052354;28;20395;-42
2021/10/27 13:36:52;;;;;;;;;;;14.90;99.90;;;;;;5053327;28;19905;-41
2021/10/27 13:39:18;;;;;;;;;;;15.00;99.90;;;;;;5052874;28;19909;-43
2021/10/27 13:41:49;;;;;;;;;;;14.90;99.90;;;;;;5052859;28;19912;-41
2021/10/27 13:44:19;;;;;;;;;;;14.90;99.90;;;;;;5053135;28;19961;-41
2021/10/27 13:47:01;;;;;;;;;;;14.80;99.90;;;;;;5053179;28;19905;-43
2021/10/27 14:08:26;;;;;;;;;;;14.70;99.90;;;;;;5052564;28;19923;-41
2021/10/27 14:13:58;;;;;;;;;;;14.60;99.90;;;;;;5052907;28;19911;-40
2021/10/27 14:16:47;;;;;;;;;;;14.70;99.90;;;;;;5052580;28;19915;-41
2021/10/27 14:40:55;;;;;;;;;;;14.50;99.90;;;;;;5052619;28;19927;-41
2021/10/27 15:19:37;;;;;;;;;;;14.10;99.90;;;;;;5051947;28;19991;-41
2021/10/27 15:22:14;;;;;;;;;;;14.00;99.90;;;;;;5052805;28;19911;-45
2021/10/27 15:25:07;;;;;;;;;;;14.00;99.90;;;;;;5035607;28;20379;-41
2021/10/27 15:43:55;;;;;;;;;;;13.90;99.90;;;;;;5053973;28;20314;-41
2021/10/27 15:51:58;;;;;;;;;;;13.90;99.90;;;;;;5053897;28;19916;-41
2021/10/27 15:54:24;;;;;;;;;;;13.90;99.90;;;;;;5053894;28;20008;-41
2021/10/27 15:56:50;;;;;;;;;;;13.90;99.90;;;;;;5053775;28;20386;-44
2021/10/27 15:59:17;;;;;;;;;;;13.90;99.90;;;;;;5053711;28;20437;-41
2021/10/27 16:01:44;;;;;;;;;;;13.80;99.90;;;;;;5053572;28;19992;-41
2021/10/27 16:04:10;;;;;;;;;;;13.90;99.90;;;;;;5052286;28;19913;-41
2021/10/27 16:06:41;;;;;;;;;;;13.80;99.90;;;;;;5053486;28;19991;-43
2021/10/27 16:09:09;;;;;;;;;;;13.80;99.90;;;;;;5053411;28;19954;-41
2021/10/27 16:11:35;;;;;;;;;;;13.80;99.90;;;;;;5053428;28;19908;-41
2021/10/27 16:14:00;;;;;;;;;;;13.80;99.90;;;;;;5053392;28;20396;-41
2021/10/27 16:16:26;;;;;;;;;;;13.80;99.90;;;;;;5053092;28;19905;-41
2021/10/27 16:18:52;;;;;;;;;;;13.70;99.90;;;;;;5052531;28;19916;-43
2021/10/27 16:21:17;;;;;;;;;;;13.70;99.90;;;;;;5053173;28;19904;-45
2021/10/27 16:23:43;;;;;;;;;;;13.80;99.90;;;;;;5053250;28;19908;-43
2021/10/27 16:26:08;;;;;;;;;;;13.70;99.90;;;;;;5053208;28;19936;-46
2021/10/27 16:28:34;;;;;;;;;;;13.80;99.90;;;;;;5053089;28;19920;-43
2021/10/27 16:32:56;;;;;;;9.82;5.80;;;13.70;99.90;;;;;;5088795;28;20308;-36
2021/10/27 16:35:22;;;;;;;8.45;4.93;;;13.70;99.90;;;;;;5087551;28;20035;-36
2021/10/27 16:37:48;;;;;;;5.88;4.13;;;13.70;99.90;;;;;;5088635;28;20063;-36
2021/10/27 16:40:13;;;;;;;11.25;6.32;;;13.70;99.90;;;;;;5088580;28;20425;-36
2021/10/27 16:42:39;;;;;;;5.97;4.43;;;13.70;99.90;;;;;;5088317;28;20059;-36
2021/10/27 16:45:07;;;;;;;7.32;4.10;;;13.70;99.90;;;;;;5088385;28;20028;-36
2021/10/27 16:47:33;;;;;;;4.50;3.22;;;13.70;99.90;;;;;;5088286;28;20067;-36
2021/10/27 16:50:00;;;;;;;6.82;4.38;;;13.70;99.90;;;;;;5087640;28;20059;-36
2021/10/27 16:52:26;;;;;;;6.30;4.40;;;13.70;99.90;;;;;;5088402;28;20103;-36
2021/10/27 16:54:54;;;;;;;5.25;4.22;;;13.70;99.90;;;;;;5088515;28;20035;-36
2021/10/27 16:57:20;;;;;;;6.63;4.38;;;13.70;99.90;;;;;;5088360;28;20021;-36
2021/10/27 16:59:46;;;;;;;4.47;3.80;;;13.70;99.90;;;;;;5088266;28;20026;-36
2021/10/27 17:02:11;;;;;;;6.50;4.63;;;13.70;99.90;;;;;;5088400;28;20028;-36
2021/10/27 17:04:37;;;;;;;5.15;3.67;;;13.70;99.90;;;;;;5087269;28;20375;-36
2021/10/27 17:07:03;;;;;;;6.45;4.43;;;13.70;99.90;;;;;;5088255;28;20036;-35
2021/10/27 17:09:29;;;;;;;4.65;3.58;;;13.70;99.90;;;;;;5088121;28;20067;-36
2021/10/27 17:11:55;;;;;;;7.22;3.83;;;13.70;99.90;;;;;;5088348;28;20120;-36
2021/10/27 17:14:20;;;;;;;5.90;4.00;;;13.70;99.90;;;;;;5076383;28;20075;-36
2021/10/27 17:16:47;;;;;;;4.32;2.67;;;13.70;99.90;;;;;;5066967;28;20120;-36
2021/10/27 17:19:13;;;;;;;4.80;2.92;;;13.70;99.90;;;;;;5066172;28;20032;-36
2021/10/27 17:21:39;;;;;;;5.60;2.20;;;13.70;99.90;;;;;;5066872;28;20025;-36
2021/10/27 17:24:07;;;;;;;3.65;2.40;;;13.70;99.90;;;;;;5067024;28;20028;-36
2021/10/27 17:26:33;;;;;;;4.53;2.88;;;13.80;99.90;;;;;;5067023;28;20431;-36
2021/10/27 17:29:01;;;;;;;2.83;2.30;;;13.70;99.90;;;;;;5066886;28;20036;-36
2021/10/27 17:31:26;;;;;;;4.15;2.47;;;13.80;99.90;;;;;;5066539;28;20053;-36
2021/10/27 17:33:52;;;;;;;3.25;2.20;;;13.80;99.90;;;;;;5065808;28;20066;-37
2021/10/27 17:36:18;;;;;;;4.20;2.15;;;13.80;99.90;;;;;;5066768;28;20043;-36
2021/10/27 17:38:43;;;;;;;3.38;2.28;;;13.80;99.90;;;;;;5066711;28;20033;-36
2021/10/27 17:41:10;;;;;;;5.25;2.65;;;13.80;99.90;;;;;;5066397;28;20578;-37
2021/10/27 17:43:36;;;;;;;2.95;2.30;;;13.80;99.90;;;;;;5058094;28;20094;-36
2021/10/27 17:46:04;;;;;;;5.97;3.05;;;13.80;99.90;;;;;;5054704;28;20032;-36
2021/10/27 17:48:37;;;;;;;6.05;2.55;;;13.80;99.90;;;;;;5054503;28;20021;-37
2021/10/27 17:51:13;;;;;;;4.68;3.22;;;13.70;99.90;;;;;;5053465;28;20486;-37
2021/10/27 17:59:09;;;;;;;3.72;2.50;;;13.80;99.90;;;;;;5072559;28;20059;-37
2021/10/27 18:01:35;;;;;;;3.88;2.58;;;13.80;99.90;;;;;;5072853;28;20444;-36
2021/10/27 18:04:04;;;;;;;3.58;2.25;;;13.80;99.90;;;;;;5072016;28;20063;-37
2021/10/27 18:06:30;;;;;;;5.53;2.58;;;13.70;99.90;;;;;;5072855;28;20051;-37
2021/10/27 18:08:56;;;;;;;3.53;2.20;;;13.70;99.90;;;;;;5072966;28;20480;-37
2021/10/27 18:11:24;;;;;;;4.28;2.30;;;13.70;99.90;;;;;;5072856;28;20028;-37
2021/10/27 18:13:55;;;;;;;4.15;2.97;;;13.70;99.90;;;;;;5072803;28;20031;-37
2021/10/27 18:21:42;;;;;;;3.70;2.70;;;13.70;99.90;;;;;;5072710;28;20028;-37